createdAt,value
2019-05-16T00:01:18.583Z,1.67
2019-05-16T00:03:53.420Z,1.60
2019-05-16T00:06:28.422Z,1.30
2019-05-16T00:09:21.991Z,1.90
2019-05-16T00:11:55.273Z,1.37
2019-05-16T00:14:31.698Z,1.67
2019-05-16T00:17:08.331Z,1.50
2019-05-16T00:19:41.141Z,1.40
2019-05-16T00:22:18.030Z,1.60
2019-05-16T00:24:51.015Z,1.70
2019-05-16T00:27:27.906Z,1.60
2019-05-16T00:30:02.784Z,1.40
2019-05-16T00:32:36.082Z,1.45
2019-05-16T00:35:10.445Z,1.50
2019-05-16T00:37:45.199Z,1.60
2019-05-16T00:40:18.817Z,1.50
2019-05-16T00:42:51.741Z,1.47
2019-05-16T00:45:24.079Z,1.67
2019-05-16T00:47:58.522Z,1.60
2019-05-16T00:50:31.352Z,1.77
2019-05-16T00:53:05.159Z,1.50
2019-05-16T00:55:38.939Z,1.97
2019-05-16T00:58:11.753Z,1.83
2019-05-16T01:00:50.312Z,1.60
2019-05-16T01:03:23.183Z,1.70
2019-05-16T01:05:58.098Z,1.80
2019-05-16T01:08:31.053Z,1.50
2019-05-16T01:11:03.752Z,1.70
2019-05-16T01:13:39.498Z,1.50
2019-05-16T01:19:38.001Z,1.50
2019-05-16T01:22:11.738Z,1.40
2019-05-16T01:24:44.924Z,1.50
2019-05-16T01:27:18.609Z,1.53
2019-05-16T01:29:51.099Z,1.53
2019-05-16T01:32:25.166Z,1.85
2019-05-16T01:34:59.036Z,1.70
2019-05-16T01:37:31.869Z,2.00
2019-05-16T01:40:05.183Z,1.50
2019-05-16T01:42:38.562Z,1.70
2019-05-16T01:45:14.815Z,1.50
2019-05-16T01:47:48.215Z,1.37
2019-05-16T01:50:20.911Z,1.80
2019-05-16T01:52:53.775Z,1.70
2019-05-16T01:55:28.474Z,1.50
2019-05-16T01:58:01.128Z,1.60
2019-05-16T02:00:37.794Z,1.70
2019-05-16T02:03:19.112Z,2.00
2019-05-16T02:05:51.715Z,1.57
2019-05-16T02:08:24.317Z,2.00
2019-05-16T02:10:58.416Z,1.90
2019-05-16T02:13:31.383Z,1.70
2019-05-16T02:16:03.891Z,1.83
2019-05-16T02:18:38.177Z,1.70
2019-05-16T02:21:12.151Z,2.07
2019-05-16T02:23:51.327Z,1.77
2019-05-16T02:26:33.716Z,1.80
2019-05-16T02:29:13.332Z,1.80
2019-05-16T02:31:46.441Z,1.83
2019-05-16T02:34:21.808Z,1.63
2019-05-16T02:37:14.613Z,1.80
2019-05-16T02:39:54.619Z,1.70
2019-05-16T02:42:30.716Z,1.87
2019-05-16T02:45:10.956Z,2.10
2019-05-16T02:47:45.053Z,2.17
2019-05-16T02:50:17.701Z,1.87
2019-05-16T02:52:51.794Z,1.67
2019-05-16T02:55:24.686Z,1.60
2019-05-16T02:58:00.381Z,1.90
2019-05-16T03:00:36.852Z,1.87
2019-05-16T03:03:12.087Z,2.10
2019-05-16T03:05:45.042Z,1.80
2019-05-16T03:08:20.727Z,2.10
2019-05-16T03:10:54.030Z,2.00
2019-05-16T03:13:31.054Z,2.00
2019-05-16T03:16:11.697Z,2.27
2019-05-16T03:18:46.598Z,2.12
2019-05-16T03:21:21.626Z,2.13
2019-05-16T03:23:56.121Z,2.20
2019-05-16T03:26:31.511Z,2.07
2019-05-16T03:29:05.478Z,2.08
2019-05-16T03:31:43.738Z,1.90
2019-05-16T03:34:43.911Z,1.80
2019-05-16T03:37:24.406Z,1.90
2019-05-16T03:40:03.184Z,1.70
2019-05-16T03:42:35.871Z,2.07
2019-05-16T03:45:10.870Z,2.07
2019-05-16T03:47:44.409Z,2.25
2019-05-16T03:50:17.319Z,2.00
2019-05-16T03:52:50.809Z,2.20
2019-05-16T03:55:23.630Z,2.10
2019-05-16T03:57:56.304Z,2.13
2019-05-16T04:00:52.280Z,2.70
2019-05-16T04:03:28.896Z,2.60
2019-05-16T04:06:03.313Z,2.10
2019-05-16T04:08:40.985Z,2.10
2019-05-16T04:11:14.021Z,2.27
2019-05-16T04:13:46.550Z,2.20
2019-05-16T04:16:20.897Z,2.13
2019-05-16T04:18:54.135Z,2.20
2019-05-16T04:21:26.819Z,2.20
2019-05-16T04:24:01.284Z,2.50
2019-05-16T04:26:36.026Z,2.33
2019-05-16T04:29:11.972Z,2.20
2019-05-16T04:31:45.055Z,2.50
2019-05-16T04:34:20.440Z,2.90
2019-05-16T04:36:53.408Z,2.90
2019-05-16T04:39:26.008Z,2.47
2019-05-16T04:42:01.443Z,2.70
2019-05-16T04:44:41.359Z,3.00
2019-05-16T04:47:21.642Z,2.47
2019-05-16T04:49:54.366Z,2.62
2019-05-16T04:52:27.153Z,2.87
2019-05-16T04:55:00.725Z,2.30
2019-05-16T04:57:33.536Z,2.33
2019-05-16T05:00:07.128Z,2.43
2019-05-16T05:02:41.807Z,2.13
2019-05-16T05:05:14.872Z,2.10
2019-05-16T05:07:47.766Z,2.50
2019-05-16T05:10:20.835Z,2.00
2019-05-16T05:12:53.534Z,2.10
2019-05-16T05:15:26.896Z,2.40
2019-05-16T05:18:15.094Z,2.10
2019-05-16T05:20:47.806Z,2.30
2019-05-16T05:23:20.919Z,2.40
2019-05-16T05:25:53.795Z,2.40
2019-05-16T05:28:29.767Z,2.20
2019-05-16T05:31:02.693Z,2.60
2019-05-16T05:33:35.181Z,2.50
2019-05-16T05:36:12.559Z,2.20
2019-05-16T05:38:48.257Z,2.33
2019-05-16T05:41:21.865Z,1.90
2019-05-16T05:43:54.608Z,2.12
2019-05-16T05:46:31.419Z,2.20
2019-05-16T05:49:04.516Z,2.50
2019-05-16T05:51:36.989Z,2.40
2019-05-16T05:54:10.850Z,2.00
2019-05-16T05:56:44.118Z,1.93
2019-05-16T05:59:16.713Z,2.43
2019-05-16T06:01:51.904Z,2.00
2019-05-16T06:04:24.540Z,2.70
2019-05-16T06:07:00.916Z,2.37
2019-05-16T06:09:34.323Z,2.30
2019-05-16T06:12:07.587Z,2.30
2019-05-16T06:14:42.695Z,2.03
2019-05-16T06:17:15.288Z,2.43
2019-05-16T06:19:49.680Z,2.00
2019-05-16T06:22:22.686Z,2.10
2019-05-16T06:24:57.223Z,2.03
2019-05-16T06:27:31.769Z,1.90
2019-05-16T06:30:06.572Z,1.90
2019-05-16T06:32:39.550Z,1.97
2019-05-16T06:35:12.836Z,1.83
2019-05-16T06:37:45.493Z,1.70
2019-05-16T06:40:20.138Z,1.77
2019-05-16T06:42:52.920Z,1.60
2019-05-16T06:45:25.494Z,1.43
2019-05-16T06:48:00.776Z,1.50
2019-05-16T06:50:33.454Z,1.40
2019-05-16T06:53:06.066Z,1.60
2019-05-16T06:55:40.103Z,1.50
2019-05-16T06:58:22.923Z,2.00
2019-05-16T07:00:55.423Z,1.57
2019-05-16T07:03:30.660Z,1.50
2019-05-16T07:06:04.391Z,1.63
2019-05-16T07:08:36.905Z,1.30
2019-05-16T07:11:10.562Z,1.50
2019-05-16T07:13:43.307Z,1.73
2019-05-16T07:16:16.079Z,1.70
2019-05-16T07:18:50.584Z,1.47
2019-05-16T07:21:31.230Z,1.70
2019-05-16T07:24:10.930Z,1.77
2019-05-16T07:26:45.315Z,1.80
2019-05-16T07:29:20.066Z,1.60
2019-05-16T07:32:00.532Z,1.60
2019-05-16T07:34:40.319Z,1.80
2019-05-16T07:37:19.972Z,1.60
2019-05-16T07:40:08.483Z,1.90
2019-05-16T07:42:51.414Z,1.87
2019-05-16T07:45:24.576Z,1.50
2019-05-16T07:47:57.229Z,2.03
2019-05-16T07:50:30.424Z,1.70
2019-05-16T07:53:03.057Z,1.70
2019-05-16T07:55:36.840Z,1.70
2019-05-16T07:58:10.273Z,1.70
2019-05-16T08:00:53.301Z,1.60
2019-05-16T08:03:31.072Z,1.57
2019-05-16T08:06:03.728Z,1.87
2019-05-16T08:08:40.205Z,1.50
2019-05-16T08:11:13.580Z,1.67
2019-05-16T08:13:47.471Z,1.80
2019-05-16T08:16:23.109Z,1.60
2019-05-16T08:18:57.260Z,1.40
2019-05-16T08:21:31.024Z,1.57
2019-05-16T08:24:07.261Z,1.60
2019-05-16T08:28:41.216Z,1.60
2019-05-16T08:31:16.759Z,1.60
2019-05-16T08:33:54.140Z,1.60
2019-05-16T08:36:31.336Z,1.50
2019-05-16T08:39:07.123Z,1.77
2019-05-16T08:46:20.554Z,1.50
2019-05-16T08:48:55.418Z,1.80
2019-05-16T08:51:28.006Z,2.20
2019-05-16T08:54:01.776Z,2.00
2019-05-16T08:56:34.658Z,1.80
2019-05-16T08:59:07.237Z,1.87
2019-05-16T09:01:48.286Z,1.60
2019-05-16T09:04:33.179Z,1.70
2019-05-16T09:07:06.403Z,1.70
2019-05-16T09:09:44.303Z,1.90
2019-05-16T09:10:34.491Z,1.53
2019-05-16T09:12:21.663Z,1.77
2019-05-16T09:14:59.342Z,1.70
2019-05-16T09:17:37.329Z,1.70
2019-05-16T09:20:13.443Z,1.90
2019-05-16T09:22:48.103Z,2.10
2019-05-16T09:25:21.669Z,1.93
2019-05-16T09:27:56.748Z,1.50
2019-05-16T09:30:29.569Z,1.60
2019-05-16T09:33:02.741Z,1.57
2019-05-16T09:35:37.010Z,2.00
2019-05-16T09:38:10.809Z,1.93
2019-05-16T09:40:47.821Z,1.83
2019-05-16T09:43:22.371Z,2.10
2019-05-16T09:45:59.944Z,2.20
2019-05-16T09:48:37.959Z,2.30
2019-05-16T09:51:17.077Z,1.97
2019-05-16T09:53:50.903Z,1.80
2019-05-16T09:56:26.846Z,1.90
2019-05-16T09:59:01.511Z,1.70
2019-05-16T10:01:37.548Z,1.67
2019-05-16T10:04:11.891Z,1.47
2019-05-16T10:06:44.639Z,1.80
2019-05-16T10:09:18.152Z,2.10
2019-05-16T10:12:06.941Z,1.58
2019-05-16T10:14:47.075Z,1.70
2019-05-16T10:17:21.372Z,1.70
2019-05-16T10:20:00.125Z,1.60
2019-05-16T10:22:37.330Z,1.70
2019-05-16T10:25:12.099Z,1.80
2019-05-16T10:27:47.601Z,1.70
2019-05-16T10:30:20.857Z,1.60
2019-05-16T10:32:54.570Z,1.80
2019-05-16T10:35:30.039Z,1.70
2019-05-16T10:38:04.770Z,2.00
2019-05-16T10:40:38.169Z,2.00
2019-05-16T10:43:10.734Z,1.90
2019-05-16T10:45:46.241Z,1.90
2019-05-16T10:48:19.773Z,1.70
2019-05-16T10:50:54.399Z,2.60
2019-05-16T10:53:57.966Z,2.30
2019-05-16T10:56:34.919Z,2.17
2019-05-16T10:59:46.839Z,2.40
2019-05-16T11:02:37.107Z,2.17
2019-05-16T11:05:25.805Z,2.57
2019-05-16T11:08:04.271Z,2.40
2019-05-16T11:10:37.413Z,2.20
2019-05-16T11:13:10.222Z,2.53
2019-05-16T11:15:42.995Z,2.20
2019-05-16T11:18:17.980Z,2.17
2019-05-16T11:20:50.978Z,2.50
2019-05-16T11:23:24.481Z,2.40
2019-05-16T11:25:59.184Z,2.70
2019-05-16T11:28:31.999Z,2.67
2019-05-16T11:31:07.683Z,2.43
2019-05-16T11:33:40.462Z,2.37
2019-05-16T11:36:13.191Z,2.30
2019-05-16T11:38:47.463Z,2.83
2019-05-16T11:41:21.616Z,3.23
2019-05-16T11:43:54.156Z,3.03
2019-05-16T11:46:28.170Z,2.80
2019-05-16T11:49:01.814Z,2.87
2019-05-16T11:51:38.210Z,3.20
2019-05-16T11:54:11.063Z,3.10
2019-05-16T11:56:43.531Z,3.13
2019-05-16T11:59:16.439Z,3.03
2019-05-16T12:01:50.174Z,2.80
2019-05-16T12:04:27.893Z,3.23
2019-05-16T12:07:01.666Z,3.90
2019-05-16T12:09:37.280Z,3.13
2019-05-16T12:12:20.986Z,3.57
2019-05-16T12:14:55.979Z,3.30
2019-05-16T12:17:37.960Z,3.27
2019-05-16T12:20:16.621Z,2.90
2019-05-16T12:22:51.456Z,2.90
2019-05-16T12:25:24.578Z,3.00
2019-05-16T12:27:58.038Z,2.90
2019-05-16T12:30:30.661Z,2.73
2019-05-16T12:33:03.252Z,2.60
2019-05-16T12:35:36.855Z,2.30
2019-05-16T12:38:11.956Z,3.07
2019-05-16T12:40:47.594Z,3.63
2019-05-16T12:43:21.492Z,3.23
2019-05-16T12:45:57.246Z,4.10
2019-05-16T12:48:29.848Z,3.00
2019-05-16T12:51:03.314Z,3.40
2019-05-16T12:53:57.020Z,3.30
2019-05-16T12:56:29.888Z,4.00
2019-05-16T12:59:02.400Z,3.47
2019-05-16T13:01:38.514Z,3.50
2019-05-16T13:04:18.539Z,3.80
2019-05-16T13:06:51.869Z,4.67
2019-05-16T13:09:26.554Z,4.13
2019-05-16T13:11:59.438Z,4.03
2019-05-16T13:14:39.705Z,4.50
2019-05-16T13:17:16.712Z,4.00
2019-05-16T13:19:52.544Z,4.30
2019-05-16T13:22:27.549Z,3.90
2019-05-16T13:25:01.048Z,4.37
2019-05-16T13:27:33.999Z,4.65
2019-05-16T13:30:08.871Z,4.53
2019-05-16T13:32:42.524Z,4.43
2019-05-16T13:35:17.008Z,4.40
2019-05-16T13:37:51.876Z,3.93
2019-05-16T13:40:27.633Z,4.30
2019-05-16T13:43:01.479Z,4.20
2019-05-16T13:45:34.038Z,3.50
2019-05-16T13:48:08.298Z,3.73
2019-05-16T13:50:42.459Z,3.40
2019-05-16T13:53:16.360Z,3.77
2019-05-16T13:55:49.262Z,4.40
2019-05-16T13:58:21.897Z,3.77
2019-05-16T14:00:56.992Z,3.77
2019-05-16T14:03:29.918Z,3.70
2019-05-16T14:06:03.415Z,4.23
2019-05-16T14:08:37.494Z,3.40
2019-05-16T14:11:10.901Z,3.60
2019-05-16T14:13:46.771Z,3.67
2019-05-16T14:16:20.057Z,4.17
2019-05-16T14:18:53.756Z,3.50
2019-05-16T14:21:26.475Z,3.30
2019-05-16T14:24:03.202Z,3.23
2019-05-16T14:26:38.646Z,2.93
2019-05-16T14:29:12.610Z,3.43
2019-05-16T14:31:46.986Z,3.17
2019-05-16T14:34:22.963Z,3.33
2019-05-16T14:36:57.842Z,3.12
2019-05-16T14:39:30.723Z,3.40
2019-05-16T14:42:04.175Z,3.30
2019-05-16T14:44:58.411Z,2.70
2019-05-16T14:47:41.936Z,3.20
2019-05-16T14:50:17.051Z,2.80
2019-05-16T14:52:49.693Z,2.85
2019-05-16T14:55:23.143Z,2.80
2019-05-16T14:57:56.705Z,3.10
2019-05-16T15:00:33.540Z,2.60
2019-05-16T15:03:08.399Z,2.80
2019-05-16T15:05:42.894Z,2.80
2019-05-16T15:08:18.218Z,2.60
2019-05-16T15:10:51.016Z,2.90
2019-05-16T15:13:23.674Z,3.10
2019-05-16T15:15:57.579Z,3.40
2019-05-16T15:18:38.615Z,3.70
2019-05-16T15:21:11.887Z,3.90
2019-05-16T15:23:46.876Z,3.43
2019-05-16T15:26:21.443Z,3.73
2019-05-16T15:28:58.384Z,3.30
2019-05-16T15:31:32.510Z,3.57
2019-05-16T15:34:05.066Z,2.90
2019-05-16T15:36:38.749Z,2.93
2019-05-16T15:39:11.508Z,3.55
2019-05-16T15:41:44.749Z,3.30
2019-05-16T15:44:17.461Z,3.30
2019-05-16T15:46:50.162Z,2.92
2019-05-16T15:49:26.547Z,3.97
2019-05-16T15:51:59.425Z,3.37
2019-05-16T15:54:37.495Z,3.40
2019-05-16T15:57:18.833Z,3.10
2019-05-16T15:59:51.352Z,3.37
2019-05-16T16:02:27.174Z,3.33
2019-05-16T16:05:01.470Z,3.90
2019-05-16T16:07:37.741Z,3.80
2019-05-16T16:10:12.304Z,3.40
2019-05-16T16:12:47.712Z,3.43
2019-05-16T16:15:23.906Z,3.63
2019-05-16T16:17:57.458Z,3.80
2019-05-16T16:20:30.115Z,3.67
2019-05-16T16:23:06.610Z,3.10
2019-05-16T16:25:43.841Z,3.70
2019-05-16T16:28:17.988Z,3.62
2019-05-16T16:30:51.243Z,3.23
2019-05-16T16:33:29.067Z,3.60
2019-05-16T16:36:03.215Z,3.47
2019-05-16T16:38:37.076Z,3.30
2019-05-16T16:41:09.848Z,3.90
2019-05-16T16:43:47.695Z,4.00
2019-05-16T16:46:20.618Z,3.75
2019-05-16T16:48:56.883Z,4.00
2019-05-16T16:51:32.384Z,3.90
2019-05-16T16:54:07.465Z,3.77
2019-05-16T16:56:40.238Z,3.60
2019-05-16T16:59:12.874Z,3.93
2019-05-16T17:01:49.461Z,3.40
2019-05-16T17:04:23.655Z,3.40
2019-05-16T17:07:01.178Z,3.27
2019-05-16T17:09:33.727Z,3.27
2019-05-16T17:12:06.809Z,3.33
2019-05-16T17:14:40.431Z,3.20
2019-05-16T17:17:12.986Z,3.17
2019-05-16T17:19:47.383Z,3.50
2019-05-16T17:22:21.123Z,3.20
2019-05-16T17:24:56.527Z,3.75
2019-05-16T17:27:29.479Z,2.80
2019-05-16T17:30:07.265Z,3.10
2019-05-16T17:32:44.105Z,3.23
2019-05-16T17:35:18.810Z,3.53
2019-05-16T17:37:52.730Z,3.30
2019-05-16T17:40:27.451Z,2.70
2019-05-16T17:43:02.529Z,2.87
2019-05-16T17:45:37.640Z,3.13
2019-05-16T17:48:10.988Z,2.93
2019-05-16T17:50:46.542Z,2.90
2019-05-16T17:53:21.141Z,3.07
2019-05-16T17:55:57.139Z,3.80
2019-05-16T17:58:30.672Z,3.20
2019-05-16T18:01:07.223Z,3.33
2019-05-16T18:03:42.573Z,3.62
2019-05-16T18:06:16.989Z,2.90
2019-05-16T18:08:51.148Z,3.10
2019-05-16T18:11:26.943Z,4.07
2019-05-16T18:14:06.131Z,3.53
2019-05-16T18:16:52.418Z,3.27
2019-05-16T18:19:32.457Z,3.53
2019-05-16T18:22:12.800Z,3.83
2019-05-16T18:24:48.679Z,4.23
2019-05-16T18:27:40.639Z,4.60
2019-05-16T18:30:27.126Z,4.70
2019-05-16T18:33:01.858Z,4.90
2019-05-16T18:35:36.730Z,5.10
2019-05-16T18:38:11.524Z,4.57
2019-05-16T18:40:47.173Z,5.40
2019-05-16T18:43:21.440Z,6.40
2019-05-16T18:45:56.705Z,6.33
2019-05-16T18:48:36.764Z,7.20
2019-05-16T18:51:13.693Z,6.00
2019-05-16T18:53:47.414Z,6.60
2019-05-16T18:56:22.269Z,5.40
2019-05-16T18:58:57.371Z,7.07
2019-05-16T19:01:31.497Z,7.80
2019-05-16T19:04:06.851Z,8.60
2019-05-16T19:06:40.589Z,8.40
2019-05-16T19:09:16.480Z,9.10
2019-05-16T19:11:52.534Z,8.00
2019-05-16T19:14:28.073Z,7.97
2019-05-16T19:17:00.717Z,8.10
2019-05-16T19:19:37.598Z,8.57
2019-05-16T19:22:12.168Z,8.87
2019-05-16T19:24:46.454Z,7.27
2019-05-16T19:27:28.891Z,8.23
2019-05-16T19:30:10.775Z,7.60
2019-05-16T19:32:46.884Z,7.60
2019-05-16T19:35:21.324Z,7.70
2019-05-16T19:37:56.857Z,8.17
2019-05-16T19:40:30.403Z,7.40
2019-05-16T19:43:07.228Z,7.57
2019-05-16T19:45:41.714Z,7.47
2019-05-16T19:48:17.305Z,7.23
2019-05-16T19:50:53.434Z,7.90
2019-05-16T19:53:27.208Z,7.43
2019-05-16T19:56:02.525Z,7.00
2019-05-16T19:58:37.213Z,6.68
2019-05-16T20:01:10.051Z,6.53
2019-05-16T20:03:43.320Z,6.27
2019-05-16T20:06:16.833Z,6.57
2019-05-16T20:08:50.460Z,6.97
2019-05-16T20:11:27.623Z,6.47
2019-05-16T20:14:01.600Z,6.60
2019-05-16T20:16:36.722Z,7.00
2019-05-16T20:19:11.527Z,7.50
2019-05-16T20:21:47.566Z,7.60
2019-05-16T20:24:23.015Z,8.13
2019-05-16T20:26:57.395Z,7.17
2019-05-16T20:29:30.033Z,7.73
2019-05-16T20:32:04.758Z,7.70
2019-05-16T20:34:38.264Z,8.00
2019-05-16T20:37:10.982Z,9.13
2019-05-16T20:39:46.489Z,8.25
2019-05-16T20:42:20.122Z,8.93
2019-05-16T20:44:52.680Z,8.93
2019-05-16T20:47:28.051Z,9.27
2019-05-16T20:50:01.461Z,8.63
2019-05-16T20:52:33.928Z,9.70
2019-05-16T20:55:07.383Z,9.80
2019-05-16T20:57:40.691Z,9.60
2019-05-16T21:00:17.401Z,8.27
2019-05-16T21:02:52.921Z,8.37
2019-05-16T21:05:26.798Z,7.53
2019-05-16T21:08:00.203Z,7.83
2019-05-16T21:10:32.748Z,7.63
2019-05-16T21:13:07.136Z,7.70
2019-05-16T21:15:41.883Z,7.30
2019-05-16T21:18:16.621Z,7.20
2019-05-16T21:20:50.371Z,7.70
2019-05-16T21:23:23.779Z,7.67
2019-05-16T21:25:57.302Z,7.63
2019-05-16T21:28:32.525Z,7.53
2019-05-16T21:31:07.248Z,7.17
2019-05-16T21:33:42.909Z,6.53
2019-05-16T21:36:19.108Z,6.67
2019-05-16T21:38:53.162Z,7.10
2019-05-16T21:41:27.109Z,7.40
2019-05-16T21:44:00.992Z,7.20
2019-05-16T21:46:36.411Z,8.00
2019-05-16T21:49:10.648Z,7.10
2019-05-16T21:51:46.629Z,7.43
2019-05-16T21:54:20.203Z,8.07
2019-05-16T21:56:57.036Z,7.30
2019-05-16T21:59:29.836Z,7.70
2019-05-16T22:02:03.167Z,7.63
2019-05-16T22:04:36.811Z,7.40
2019-05-16T22:07:09.709Z,7.60
2019-05-16T22:09:42.798Z,8.57
2019-05-16T22:12:18.551Z,8.57
2019-05-16T22:14:53.763Z,8.15
2019-05-16T22:17:27.545Z,8.43
2019-05-16T22:20:00.141Z,8.60
2019-05-16T22:22:32.684Z,8.60
2019-05-16T22:25:07.466Z,8.03
2019-05-16T22:27:41.330Z,8.93
2019-05-16T22:30:17.113Z,8.63
2019-05-16T22:32:49.784Z,8.57
2019-05-16T22:35:22.304Z,8.20
2019-05-16T22:37:59.081Z,8.23
2019-05-16T22:40:33.357Z,8.50
2019-05-16T22:43:09.698Z,8.15
2019-05-16T22:45:43.821Z,8.77
2019-05-16T22:48:26.594Z,8.23
2019-05-16T22:50:59.642Z,8.07
2019-05-16T22:53:36.675Z,8.57
2019-05-16T22:56:12.595Z,9.33
2019-05-16T22:58:47.294Z,9.17
2019-05-16T23:01:20.555Z,9.13
2019-05-16T23:03:53.301Z,8.93
2019-05-16T23:06:26.930Z,9.87
2019-05-16T23:09:00.245Z,10.13
2019-05-16T23:11:32.800Z,9.23
2019-05-16T23:14:13.627Z,9.93
2019-05-16T23:16:47.319Z,9.03
2019-05-16T23:19:20.688Z,7.83
2019-05-16T23:21:53.363Z,8.70
2019-05-16T23:24:26.591Z,8.60
2019-05-16T23:26:59.131Z,8.40
2019-05-16T23:29:31.583Z,8.17
2019-05-16T23:32:07.171Z,8.13
2019-05-16T23:34:40.334Z,8.83
2019-05-16T23:37:17.419Z,8.05
2019-05-16T23:39:50.842Z,8.00
2019-05-16T23:42:26.296Z,8.30
2019-05-16T23:44:59.312Z,8.07
2019-05-16T23:47:33.719Z,8.93
2019-05-16T23:50:07.715Z,8.77
2019-05-16T23:52:40.231Z,8.77
2019-05-16T23:55:12.895Z,8.43
2019-05-16T23:57:46.580Z,8.60
